createdAt,value
2023-03-29T00:01:36.056Z,11.82
2023-03-29T00:04:39.165Z,11.81
2023-03-29T00:07:45.723Z,11.81
2023-03-29T00:10:50.040Z,11.82
2023-03-29T00:13:52.258Z,11.82
2023-03-29T00:17:03.102Z,11.83
2023-03-29T00:20:10.418Z,11.83
2023-03-29T00:23:07.578Z,11.83
2023-03-29T00:26:18.432Z,11.82
2023-03-29T00:29:22.964Z,11.79
2023-03-29T00:32:34.117Z,11.79
2023-03-29T00:35:45.187Z,11.80
2023-03-29T00:38:39.205Z,11.81
2023-03-29T00:41:51.056Z,11.82
2023-03-29T00:44:59.402Z,11.82
2023-03-29T00:48:12.408Z,11.82
2023-03-29T00:51:24.551Z,11.80
2023-03-29T00:54:38.414Z,11.78
2023-03-29T00:57:49.714Z,11.76
2023-03-29T01:00:55.776Z,11.75
2023-03-29T01:03:51.094Z,11.74
2023-03-29T01:06:55.666Z,11.76
2023-03-29T01:10:06.873Z,11.78
2023-03-29T01:13:22.092Z,11.80
2023-03-29T01:16:27.761Z,11.81
2023-03-29T01:19:42.231Z,11.82
2023-03-29T01:23:10.189Z,11.82
2023-03-29T01:26:25.260Z,11.84
2023-03-29T01:29:30.272Z,11.85
2023-03-29T01:32:45.029Z,11.85
2023-03-29T01:36:00.369Z,11.86
2023-03-29T01:38:52.454Z,11.88
2023-03-29T01:42:09.638Z,11.90
2023-03-29T01:45:05.245Z,11.92
2023-03-29T01:47:59.307Z,11.94
2023-03-29T01:50:56.562Z,11.94
2023-03-29T01:54:07.741Z,11.95
2023-03-29T01:57:07.235Z,11.96
2023-03-29T01:59:59.231Z,11.97
2023-03-29T02:02:50.320Z,11.98
2023-03-29T02:05:52.016Z,11.99
2023-03-29T02:08:52.730Z,12.01
2023-03-29T02:11:53.267Z,12.05
2023-03-29T02:14:45.884Z,12.09
2023-03-29T02:17:48.057Z,12.12
2023-03-29T02:20:44.099Z,12.14
2023-03-29T02:23:39.603Z,12.16
2023-03-29T02:26:32.656Z,12.17
2023-03-29T02:29:28.198Z,12.18
2023-03-29T02:32:33.868Z,12.18
2023-03-29T02:35:35.237Z,12.19
2023-03-29T02:38:28.815Z,12.19
2023-03-29T02:41:24.092Z,12.21
2023-03-29T02:44:16.410Z,12.20
2023-03-29T02:47:10.188Z,12.14
2023-03-29T02:50:06.804Z,12.08
2023-03-29T02:53:19.090Z,12.10
2023-03-29T02:56:12.341Z,12.14
2023-03-29T02:59:05.337Z,12.19
2023-03-29T03:01:58.574Z,12.23
2023-03-29T03:04:50.238Z,12.29
2023-03-29T03:07:44.248Z,12.35
2023-03-29T03:10:37.572Z,12.40
2023-03-29T03:13:27.797Z,12.44
2023-03-29T03:16:20.682Z,12.46
2023-03-29T03:19:29.856Z,12.46
2023-03-29T03:31:14.222Z,12.35
2023-03-29T03:34:53.450Z,12.29
2023-03-29T03:38:44.579Z,12.24
2023-03-29T03:41:59.307Z,12.22
2023-03-29T03:44:50.512Z,12.21
2023-03-29T03:48:16.420Z,12.21
2023-03-29T03:51:13.840Z,12.22
2023-03-29T03:54:24.511Z,12.24
2023-03-29T03:57:43.889Z,12.25
2023-03-29T04:00:37.450Z,12.26
2023-03-29T04:03:37.839Z,12.27
2023-03-29T04:06:30.743Z,12.27
2023-03-29T04:10:00.086Z,12.27
2023-03-29T04:13:12.185Z,12.27
2023-03-29T04:16:27.858Z,12.28
2023-03-29T04:19:21.996Z,12.34
2023-03-29T04:22:23.412Z,12.40
2023-03-29T04:25:23.676Z,12.45
2023-03-29T04:28:22.805Z,12.50
2023-03-29T04:31:20.327Z,12.55
2023-03-29T04:34:19.843Z,12.58
2023-03-29T04:37:22.335Z,12.59
2023-03-29T04:40:15.445Z,12.56
2023-03-29T04:43:16.220Z,12.50
2023-03-29T04:46:16.244Z,12.44
2023-03-29T04:49:29.431Z,12.35
2023-03-29T04:52:20.904Z,12.26
2023-03-29T04:55:13.209Z,12.18
2023-03-29T04:58:30.710Z,12.08
2023-03-29T05:01:26.048Z,12.00
2023-03-29T05:04:20.973Z,11.95
2023-03-29T05:07:27.159Z,11.91
2023-03-29T05:10:17.785Z,11.90
2023-03-29T05:13:08.204Z,11.89
2023-03-29T05:16:00.788Z,11.88
2023-03-29T05:18:57.018Z,11.87
2023-03-29T05:21:47.971Z,11.85
2023-03-29T05:24:42.466Z,11.84
2023-03-29T05:27:45.989Z,11.79
2023-03-29T05:30:36.436Z,11.76
2023-03-29T05:33:33.868Z,11.70
2023-03-29T05:36:24.931Z,11.66
2023-03-29T05:39:16.755Z,11.60
2023-03-29T05:42:13.720Z,11.54
2023-03-29T05:45:23.086Z,11.51
2023-03-29T05:48:21.813Z,11.49
2023-03-29T05:51:14.966Z,11.48
2023-03-29T05:54:17.865Z,11.50
2023-03-29T05:57:28.456Z,11.56
2023-03-29T06:00:24.497Z,11.64
2023-03-29T06:03:25.665Z,11.71
2023-03-29T06:06:27.183Z,11.76
2023-03-29T06:09:19.622Z,11.78
2023-03-29T06:12:26.932Z,11.80
2023-03-29T06:15:23.431Z,11.81
2023-03-29T06:18:32.445Z,11.83
2023-03-29T06:21:23.541Z,11.88
2023-03-29T06:24:15.839Z,11.92
2023-03-29T06:27:13.606Z,11.96
2023-03-29T06:30:07.786Z,12.00
2023-03-29T06:33:01.997Z,12.02
2023-03-29T06:36:12.198Z,12.02
2023-03-29T06:39:08.818Z,12.02
2023-03-29T06:42:28.686Z,12.01
2023-03-29T06:45:45.357Z,11.98
2023-03-29T06:48:43.153Z,11.95
2023-03-29T06:51:35.426Z,11.93
2023-03-29T06:54:25.956Z,11.92
2023-03-29T06:57:22.930Z,11.92
2023-03-29T07:00:22.242Z,11.92
2023-03-29T07:03:54.944Z,11.92
2023-03-29T07:07:01.857Z,11.93
2023-03-29T07:09:55.770Z,11.92
2023-03-29T07:13:15.763Z,11.90
2023-03-29T07:16:07.738Z,11.88
2023-03-29T07:19:09.372Z,11.84
2023-03-29T07:22:10.160Z,11.80
2023-03-29T07:25:13.607Z,11.77
2023-03-29T07:28:03.846Z,11.77
2023-03-29T07:30:57.427Z,11.79
2023-03-29T07:33:52.639Z,11.82
2023-03-29T07:36:43.855Z,11.86
2023-03-29T07:39:34.022Z,11.91
2023-03-29T07:42:58.941Z,11.99
2023-03-29T07:45:52.114Z,12.03
2023-03-29T07:48:42.945Z,12.04
2023-03-29T07:51:37.268Z,12.02
2023-03-29T07:54:32.913Z,12.01
2023-03-29T07:57:44.739Z,11.99
2023-03-29T08:00:34.935Z,11.98
2023-03-29T08:03:43.506Z,11.99
2023-03-29T08:06:37.532Z,12.01
2023-03-29T08:09:31.231Z,12.05
2023-03-29T08:12:25.037Z,12.07
2023-03-29T08:15:19.209Z,12.11
2023-03-29T08:18:09.533Z,12.15
2023-03-29T08:21:00.582Z,12.25
2023-03-29T08:23:51.311Z,12.36
2023-03-29T08:26:54.135Z,12.36
2023-03-29T08:29:44.557Z,12.30
2023-03-29T08:32:38.293Z,12.25
2023-03-29T08:35:29.069Z,12.23
2023-03-29T08:38:31.713Z,12.24
2023-03-29T08:41:37.988Z,12.28
2023-03-29T08:44:38.342Z,12.31
2023-03-29T08:47:40.208Z,12.37
2023-03-29T08:50:38.042Z,12.42
2023-03-29T08:53:30.642Z,12.46
2023-03-29T08:56:29.543Z,12.51
2023-03-29T08:59:53.868Z,12.56
2023-03-29T09:02:47.207Z,12.54
2023-03-29T09:05:41.473Z,12.54
2023-03-29T09:08:50.557Z,12.55
2023-03-29T09:11:50.845Z,12.54
2023-03-29T09:14:46.173Z,12.57
2023-03-29T09:17:49.907Z,12.57
2023-03-29T09:20:46.483Z,12.56
2023-03-29T09:23:48.648Z,12.57
2023-03-29T09:27:06.303Z,12.52
2023-03-29T09:30:26.171Z,12.39
2023-03-29T09:33:42.974Z,12.25
2023-03-29T09:36:42.242Z,12.14
2023-03-29T09:39:32.497Z,12.05
2023-03-29T09:42:31.225Z,11.99
2023-03-29T09:45:21.746Z,11.91
2023-03-29T09:48:15.047Z,11.85
2023-03-29T09:51:10.348Z,11.81
2023-03-29T09:54:02.159Z,11.78
2023-03-29T09:57:17.916Z,11.76
2023-03-29T10:00:10.877Z,11.79
2023-03-29T10:03:04.352Z,11.82
2023-03-29T10:06:17.854Z,11.83
2023-03-29T10:09:17.042Z,11.86
2023-03-29T10:12:08.471Z,11.98
2023-03-29T10:15:01.800Z,12.09
2023-03-29T10:17:58.655Z,12.19
2023-03-29T10:20:49.086Z,12.26
2023-03-29T10:23:39.453Z,12.33
2023-03-29T10:26:32.944Z,12.47
2023-03-29T10:29:24.006Z,12.61
2023-03-29T10:32:18.499Z,12.75
2023-03-29T10:35:10.889Z,12.82
2023-03-29T10:38:04.212Z,12.89
2023-03-29T10:40:55.058Z,13.04
2023-03-29T10:43:49.429Z,13.22
2023-03-29T10:46:44.129Z,13.40
2023-03-29T10:49:40.836Z,13.44
2023-03-29T10:52:31.831Z,13.38
2023-03-29T10:55:23.348Z,13.33
2023-03-29T10:58:25.838Z,13.30
2023-03-29T11:01:19.028Z,13.30
2023-03-29T11:04:17.545Z,13.33
2023-03-29T11:07:22.748Z,13.41
2023-03-29T11:10:26.365Z,13.60
2023-03-29T11:13:23.630Z,13.76
2023-03-29T11:16:18.505Z,13.81
2023-03-29T11:19:15.429Z,13.97
2023-03-29T11:22:10.005Z,14.18
2023-03-29T11:25:05.908Z,14.62
2023-03-29T11:28:00.537Z,14.93
2023-03-29T11:30:56.354Z,15.15
2023-03-29T11:33:55.854Z,15.22
2023-03-29T11:36:53.905Z,15.16
2023-03-29T11:39:50.830Z,15.17
2023-03-29T11:42:44.089Z,15.96
2023-03-29T11:45:36.894Z,17.00
2023-03-29T11:48:29.872Z,18.38
2023-03-29T11:51:23.698Z,18.77
2023-03-29T11:54:19.278Z,19.04
2023-03-29T11:57:14.111Z,20.40
2023-03-29T12:00:06.864Z,22.26
2023-03-29T12:03:08.482Z,23.37
2023-03-29T12:06:02.673Z,24.21
2023-03-29T12:08:56.268Z,24.55
2023-03-29T12:11:50.182Z,24.41
2023-03-29T12:14:48.239Z,23.64
2023-03-29T12:17:40.968Z,23.05
2023-03-29T12:20:33.149Z,23.06
2023-03-29T12:23:26.407Z,24.18
2023-03-29T12:26:27.359Z,25.01
2023-03-29T12:29:29.717Z,26.27
2023-03-29T12:32:32.086Z,28.13
2023-03-29T12:35:37.879Z,29.49
2023-03-29T12:38:54.578Z,30.53
2023-03-29T12:42:15.584Z,30.53
2023-03-29T12:45:32.105Z,30.77
2023-03-29T12:48:25.119Z,31.54
2023-03-29T12:51:16.743Z,32.03
2023-03-29T12:54:08.814Z,32.63
2023-03-29T12:57:21.501Z,32.83
2023-03-29T13:00:21.286Z,32.66
2023-03-29T13:03:29.527Z,32.71
2023-03-29T13:06:33.410Z,32.76
2023-03-29T13:09:30.065Z,32.71
2023-03-29T13:12:33.485Z,31.84
2023-03-29T13:15:26.404Z,30.76
2023-03-29T13:18:42.329Z,29.82
2023-03-29T13:21:41.625Z,29.05
2023-03-29T13:24:52.574Z,28.90
2023-03-29T13:27:49.129Z,28.57
2023-03-29T13:30:52.403Z,28.08
2023-03-29T13:33:55.498Z,27.70
2023-03-29T13:36:54.800Z,27.54
2023-03-29T13:39:51.248Z,27.06
2023-03-29T13:42:44.484Z,26.93
2023-03-29T13:45:37.232Z,27.33
2023-03-29T13:48:28.628Z,27.19
2023-03-29T13:51:42.591Z,26.65
2023-03-29T13:54:35.037Z,26.39
2023-03-29T13:57:31.876Z,26.48
2023-03-29T14:00:24.099Z,26.61
2023-03-29T14:03:15.717Z,25.83
2023-03-29T14:06:08.311Z,25.24
2023-03-29T14:09:00.553Z,24.79
2023-03-29T14:11:50.777Z,24.86
2023-03-29T14:14:48.373Z,25.44
2023-03-29T14:17:48.872Z,25.88
2023-03-29T14:20:39.331Z,25.59
2023-03-29T14:23:31.523Z,24.83
2023-03-29T14:26:22.716Z,23.81
2023-03-29T14:29:12.950Z,22.75
2023-03-29T14:32:11.622Z,22.48
2023-03-29T14:35:01.959Z,22.62
2023-03-29T14:37:52.179Z,22.74
2023-03-29T14:40:45.055Z,22.58
2023-03-29T14:43:35.214Z,22.45
2023-03-29T14:46:25.785Z,22.63
2023-03-29T14:49:17.009Z,22.91
2023-03-29T14:52:07.357Z,22.93
2023-03-29T14:54:59.655Z,22.83
2023-03-29T14:57:54.723Z,22.88
2023-03-29T15:00:44.912Z,23.02
2023-03-29T15:03:43.770Z,22.86
2023-03-29T15:06:38.308Z,22.78
2023-03-29T15:09:30.493Z,22.79
2023-03-29T15:12:20.872Z,22.74
2023-03-29T15:15:13.415Z,22.62
2023-03-29T15:18:04.171Z,22.47
2023-03-29T15:20:55.724Z,22.28
2023-03-29T15:23:52.292Z,21.91
2023-03-29T15:26:43.080Z,21.33
2023-03-29T15:29:37.160Z,21.21
2023-03-29T15:32:34.964Z,21.16
2023-03-29T15:35:26.004Z,21.23
2023-03-29T15:38:15.979Z,21.27
2023-03-29T15:41:06.597Z,21.22
2023-03-29T15:43:57.658Z,21.15
2023-03-29T15:46:47.740Z,20.82
2023-03-29T15:49:37.864Z,20.43
2023-03-29T15:52:28.139Z,20.27
2023-03-29T15:55:18.646Z,20.25
2023-03-29T15:58:09.127Z,20.09
2023-03-29T16:01:03.619Z,19.92
2023-03-29T16:03:53.940Z,19.75
2023-03-29T16:06:44.532Z,19.69
2023-03-29T16:09:34.565Z,19.76
2023-03-29T16:12:24.679Z,19.80
2023-03-29T16:15:18.114Z,19.69
2023-03-29T16:18:08.490Z,19.47
2023-03-29T16:20:59.530Z,19.21
2023-03-29T16:23:49.747Z,19.00
2023-03-29T16:26:39.943Z,18.66
2023-03-29T16:29:30.214Z,18.35
2023-03-29T16:32:20.674Z,18.10
2023-03-29T16:35:14.646Z,17.98
2023-03-29T16:38:04.816Z,17.98
2023-03-29T16:40:56.362Z,17.93
2023-03-29T16:43:48.232Z,17.87
2023-03-29T16:46:38.508Z,17.83
2023-03-29T16:49:29.305Z,17.76
2023-03-29T16:52:19.340Z,17.63
2023-03-29T16:55:12.251Z,17.47
2023-03-29T16:58:02.729Z,17.25
2023-03-29T17:00:56.326Z,17.05
2023-03-29T17:03:46.594Z,16.85
2023-03-29T17:06:36.694Z,16.69
2023-03-29T17:09:29.307Z,16.58
2023-03-29T17:12:21.313Z,16.49
2023-03-29T17:15:12.202Z,16.46
2023-03-29T17:18:02.418Z,16.48
2023-03-29T17:20:53.372Z,16.49
2023-03-29T17:23:43.434Z,16.50
2023-03-29T17:26:33.534Z,16.54
2023-03-29T17:29:23.635Z,16.58
2023-03-29T17:32:13.823Z,16.63
2023-03-29T17:35:04.971Z,16.69
2023-03-29T17:37:56.036Z,16.66
2023-03-29T17:40:52.488Z,16.65
2023-03-29T17:43:43.232Z,16.60
2023-03-29T17:46:33.402Z,16.51
2023-03-29T17:49:25.114Z,16.40
2023-03-29T17:52:15.737Z,16.23
2023-03-29T17:55:06.958Z,16.08
2023-03-29T17:57:57.094Z,15.98
2023-03-29T18:00:47.154Z,15.86
2023-03-29T18:03:37.506Z,15.79
2023-03-29T18:06:28.133Z,15.73
2023-03-29T18:09:18.194Z,15.64
2023-03-29T18:12:08.507Z,15.53
2023-03-29T18:14:59.522Z,15.42
2023-03-29T18:17:50.577Z,15.31
2023-03-29T18:20:40.893Z,15.19
2023-03-29T18:23:30.984Z,15.04
2023-03-29T18:26:23.059Z,14.89
2023-03-29T18:29:13.371Z,14.77
2023-03-29T18:32:03.713Z,14.63
2023-03-29T18:34:53.864Z,14.52
2023-03-29T18:37:44.021Z,14.42
2023-03-29T18:40:34.832Z,14.32
2023-03-29T18:43:24.864Z,14.24
2023-03-29T18:46:15.218Z,14.12
2023-03-29T18:49:05.310Z,14.03
2023-03-29T18:51:55.773Z,13.95
2023-03-29T18:54:45.943Z,13.87
2023-03-29T18:57:36.207Z,13.80
2023-03-29T19:00:36.010Z,13.73
2023-03-29T19:03:27.300Z,13.64
2023-03-29T19:06:17.989Z,13.56
2023-03-29T19:09:08.528Z,13.50
2023-03-29T19:11:58.676Z,13.43
2023-03-29T19:14:48.852Z,13.38
2023-03-29T19:17:39.006Z,13.33
2023-03-29T19:20:30.108Z,13.29
2023-03-29T19:23:20.243Z,13.24
2023-03-29T19:26:10.861Z,13.19
2023-03-29T19:29:01.123Z,13.15
2023-03-29T19:31:52.068Z,13.11
2023-03-29T19:34:42.170Z,13.06
2023-03-29T19:37:35.759Z,13.01
2023-03-29T19:40:27.514Z,12.96
2023-03-29T19:43:18.495Z,12.93
2023-03-29T19:46:10.617Z,12.88
2023-03-29T19:49:02.602Z,12.84
2023-03-29T19:51:55.668Z,12.81
2023-03-29T19:54:46.203Z,12.79
2023-03-29T19:57:39.354Z,12.79
2023-03-29T20:00:29.653Z,12.78
2023-03-29T20:03:21.938Z,12.79
2023-03-29T20:06:13.141Z,12.80
2023-03-29T20:09:05.061Z,12.81
2023-03-29T20:11:57.777Z,12.80
2023-03-29T20:14:51.213Z,12.80
2023-03-29T20:17:41.789Z,12.77
2023-03-29T20:20:32.277Z,12.74
2023-03-29T20:23:22.505Z,12.71
2023-03-29T20:26:13.191Z,12.70
2023-03-29T20:29:03.649Z,12.67
2023-03-29T20:31:53.853Z,12.65
2023-03-29T20:34:45.131Z,12.63
2023-03-29T20:37:35.491Z,12.62
2023-03-29T20:40:25.688Z,12.60
2023-03-29T20:43:19.161Z,12.58
2023-03-29T20:46:14.844Z,12.57
2023-03-29T20:49:05.848Z,12.54
2023-03-29T20:51:59.555Z,12.51
2023-03-29T20:54:49.993Z,12.48
2023-03-29T20:57:40.761Z,12.46
2023-03-29T21:00:35.514Z,12.43
2023-03-29T21:03:25.985Z,12.43
2023-03-29T21:06:16.292Z,12.44
2023-03-29T21:09:06.578Z,12.47
2023-03-29T21:11:59.283Z,12.51
2023-03-29T21:14:49.623Z,12.54
2023-03-29T21:17:39.991Z,12.57
2023-03-29T21:20:34.824Z,12.59
2023-03-29T21:23:25.276Z,12.60
2023-03-29T21:26:15.756Z,12.60
2023-03-29T21:29:06.004Z,12.61
2023-03-29T21:31:56.452Z,12.60
2023-03-29T21:34:46.982Z,12.59
2023-03-29T21:37:37.561Z,12.58
2023-03-29T21:40:34.424Z,12.57
2023-03-29T21:43:25.072Z,12.54
2023-03-29T21:46:15.724Z,12.50
2023-03-29T21:49:26.350Z,12.46
2023-03-29T21:52:19.229Z,12.42
2023-03-29T21:55:14.859Z,12.39
2023-03-29T21:58:11.660Z,12.36
2023-03-29T22:01:03.870Z,12.33
2023-03-29T22:03:54.174Z,12.30
2023-03-29T22:06:44.947Z,12.28
2023-03-29T22:09:38.180Z,12.28
2023-03-29T22:12:32.462Z,12.31
2023-03-29T22:15:35.591Z,12.34
2023-03-29T22:18:34.204Z,12.38
2023-03-29T22:21:25.486Z,12.43
2023-03-29T22:28:05.394Z,12.50
2023-03-29T22:34:22.393Z,12.48
2023-03-29T22:37:27.277Z,12.45
2023-03-29T22:40:51.814Z,12.43
2023-03-29T22:44:25.376Z,12.40
2023-03-29T22:51:20.346Z,12.33
2023-03-29T22:54:42.932Z,12.29
2023-03-29T22:58:44.226Z,12.26
2023-03-29T23:01:31.802Z,12.24
2023-03-29T23:05:10.910Z,12.24
2023-03-29T23:09:00.573Z,12.24
2023-03-29T23:12:04.145Z,12.24
2023-03-29T23:14:56.005Z,12.21
2023-03-29T23:17:46.172Z,12.16
2023-03-29T23:20:36.411Z,12.08
2023-03-29T23:23:29.302Z,11.99
2023-03-29T23:26:19.432Z,11.87
2023-03-29T23:29:09.647Z,11.75
2023-03-29T23:31:59.849Z,11.65
2023-03-29T23:34:50.274Z,11.57
2023-03-29T23:37:40.702Z,11.51
2023-03-29T23:40:39.711Z,11.46
2023-03-29T23:43:36.039Z,11.38
2023-03-29T23:46:26.725Z,11.30
2023-03-29T23:49:22.898Z,11.23
2023-03-29T23:52:13.368Z,11.16
2023-03-29T23:55:04.721Z,11.08
2023-03-29T23:57:58.139Z,11.02
